To NAV CANADA Home Page Login to a new session Search on AWWS site Feedback and Comments Disclaimer Vers la page française équivalente Tips FAQ What's new on the site To the Forecasts and Observations / NOTAM section To "File a Flight Plan" website Publications and other links Update of the User's profile FIC Telephone Numbers My Weather Data Folder Route Weather Data Regional Weather Data Local Weather Data To the Forecasts and Observations / NOTAM section
Request Generated 07/02/2015 at 05:17:19 UTC . Weather information available at that time is displayed.

METAR/TAF

THOMPSON/MB    

METAR CYTH 020500Z 00000KT 15SM SCT120 BKN230 14/10 A2986 RMK AC4CI3
SLP116 DENSITY ALT 800FT=
METAR CYTH 020400Z 00000KT 15SM BKN130 BKN240 16/11 A2987 RMK AC5CI2
SLP120 DENSITY ALT 1000FT=
METAR CYTH 020300Z 00000KT 15SM SCT080 BKN200 18/10 A2987 RMK AC3CI2
SLP120 DENSITY ALT 1200FT=

TAF CYTH 020038Z 0201/0213 VRB03KT P6SM SCT080 BKN200
FM021000 VRB03KT P6SM BKN050 TEMPO 0210/0213 P6SM -SHRA PROB30
0210/0213 VRB15G25KT 4SM TSRA BKN050CB
RMK NXT FCST BY 020700Z=
Your time UTC time
Weather data provided by Environment Canada and NAV CANADA